createdAt,value
2018-06-16T00:02:07.380Z,13.10
2018-06-16T00:04:35.104Z,13.87
2018-06-16T00:07:02.998Z,12.67
2018-06-16T00:09:30.728Z,13.37
2018-06-16T00:11:58.469Z,12.63
2018-06-16T00:14:26.239Z,12.63
2018-06-16T00:16:54.093Z,12.70
2018-06-16T00:19:21.902Z,12.27
2018-06-16T00:21:49.626Z,12.00
2018-06-16T00:24:17.430Z,13.23
2018-06-16T00:26:45.244Z,13.17
2018-06-16T00:29:12.983Z,13.17
2018-06-16T00:31:40.774Z,13.37
2018-06-16T00:34:08.478Z,12.47
2018-06-16T00:36:36.365Z,12.77
2018-06-16T00:39:06.435Z,13.07
2018-06-16T00:41:34.225Z,12.83
2018-06-16T00:44:02.024Z,13.37
2018-06-16T00:46:29.850Z,12.67
2018-06-16T00:48:57.591Z,13.30
2018-06-16T00:51:25.322Z,14.43
2018-06-16T00:53:53.047Z,14.33
2018-06-16T00:56:20.873Z,13.90
2018-06-16T00:58:48.591Z,13.20
2018-06-16T01:01:16.407Z,14.97
2018-06-16T01:03:44.137Z,15.13
2018-06-16T01:06:11.936Z,14.33
2018-06-16T01:08:39.866Z,14.03
2018-06-16T01:11:07.669Z,14.90
2018-06-16T01:13:35.473Z,14.63
2018-06-16T01:16:03.239Z,16.03
2018-06-16T01:18:30.977Z,15.87
2018-06-16T01:20:58.810Z,14.07
2018-06-16T01:23:26.713Z,15.57
2018-06-16T01:25:54.345Z,15.67
2018-06-16T01:28:22.253Z,14.67
2018-06-16T01:30:50.149Z,14.43
2018-06-16T01:33:17.922Z,14.40
2018-06-16T01:35:45.650Z,13.97
2018-06-16T01:38:13.370Z,14.43
2018-06-16T01:40:41.078Z,14.17
2018-06-16T01:43:08.855Z,13.70
2018-06-16T01:45:36.597Z,12.90
2018-06-16T01:48:04.525Z,13.30
2018-06-16T01:50:32.450Z,13.27
2018-06-16T01:53:00.210Z,14.17
2018-06-16T01:55:27.929Z,14.10
2018-06-16T01:57:55.534Z,13.87
2018-06-16T02:00:23.298Z,13.87
2018-06-16T02:02:51.115Z,13.20
2018-06-16T02:05:18.938Z,13.17
2018-06-16T02:07:46.673Z,12.60
2018-06-16T02:10:14.375Z,13.60
2018-06-16T02:12:42.005Z,14.30
2018-06-16T02:15:09.752Z,13.53
2018-06-16T02:17:37.497Z,14.10
2018-06-16T02:20:05.114Z,13.30
2018-06-16T02:22:32.867Z,14.77
2018-06-16T02:25:00.689Z,14.90
2018-06-16T02:27:28.394Z,14.20
2018-06-16T02:29:56.110Z,14.30
2018-06-16T02:32:23.848Z,15.10
2018-06-16T02:34:51.573Z,13.03
2018-06-16T02:37:19.504Z,14.03
2018-06-16T02:39:47.354Z,14.10
2018-06-16T02:42:15.078Z,14.83
2018-06-16T02:44:42.795Z,15.20
2018-06-16T02:47:10.537Z,14.47
2018-06-16T02:49:38.278Z,13.80
2018-06-16T02:52:06.310Z,15.00
2018-06-16T02:54:34.104Z,15.73
2018-06-16T02:57:01.907Z,14.60
2018-06-16T02:59:29.685Z,15.57
2018-06-16T03:01:57.386Z,15.60
2018-06-16T03:04:25.127Z,14.50
2018-06-16T03:06:52.724Z,15.40
2018-06-16T03:09:20.498Z,14.67
2018-06-16T03:11:48.235Z,15.57
2018-06-16T03:14:15.934Z,15.50
2018-06-16T03:16:43.847Z,15.13
2018-06-16T03:19:11.627Z,14.00
2018-06-16T03:21:39.405Z,14.27
2018-06-16T03:24:07.102Z,14.80
2018-06-16T03:26:34.855Z,15.00
2018-06-16T03:29:02.762Z,14.97
2018-06-16T03:31:30.501Z,14.80
2018-06-16T03:33:58.250Z,13.80
2018-06-16T03:36:26.073Z,13.90
2018-06-16T03:38:53.718Z,15.20
2018-06-16T03:41:21.443Z,14.27
2018-06-16T03:43:49.228Z,15.30
2018-06-16T03:46:16.966Z,14.70
2018-06-16T03:48:44.706Z,14.90
2018-06-16T03:51:12.419Z,14.60
2018-06-16T03:53:40.182Z,14.93
2018-06-16T03:56:07.893Z,14.50
2018-06-16T03:58:35.626Z,14.40
2018-06-16T04:01:03.438Z,14.83
2018-06-16T04:03:31.134Z,16.60
2018-06-16T04:05:59.009Z,15.17
2018-06-16T04:08:26.737Z,14.77
2018-06-16T04:10:54.473Z,15.27
2018-06-16T04:13:22.318Z,15.73
2018-06-16T04:15:50.106Z,14.73
2018-06-16T04:18:17.806Z,15.47
2018-06-16T04:20:45.683Z,14.53
2018-06-16T04:23:13.451Z,14.57
2018-06-16T04:25:41.226Z,14.47
2018-06-16T04:28:08.938Z,13.30
2018-06-16T04:30:36.747Z,14.20
2018-06-16T04:33:04.509Z,14.40
2018-06-16T04:35:32.213Z,14.93
2018-06-16T04:37:59.941Z,14.97
2018-06-16T04:40:27.682Z,13.90
2018-06-16T04:42:55.575Z,14.80
2018-06-16T04:45:23.337Z,15.30
2018-06-16T04:47:51.149Z,14.40
2018-06-16T04:50:18.917Z,15.13
2018-06-16T04:52:46.638Z,15.03
2018-06-16T04:55:14.379Z,14.73
2018-06-16T04:57:42.132Z,15.50
2018-06-16T05:00:09.951Z,14.60
2018-06-16T05:02:37.751Z,15.47
2018-06-16T05:05:05.888Z,15.30
2018-06-16T05:07:33.810Z,15.90
2018-06-16T05:10:01.578Z,16.40
2018-06-16T05:12:29.354Z,14.33
2018-06-16T05:14:57.073Z,15.57
2018-06-16T05:17:24.802Z,14.83
2018-06-16T05:19:52.674Z,13.87
2018-06-16T05:22:20.470Z,14.07
2018-06-16T05:24:48.226Z,15.27
2018-06-16T05:27:16.119Z,15.47
2018-06-16T05:29:44.054Z,15.23
2018-06-16T05:32:11.797Z,15.30
2018-06-16T05:34:39.533Z,15.47
2018-06-16T05:37:07.226Z,15.13
2018-06-16T05:39:35.056Z,14.90
2018-06-16T05:42:02.749Z,14.60
2018-06-16T05:44:30.525Z,15.00
2018-06-16T05:46:58.329Z,15.83
2018-06-16T05:49:26.184Z,15.80
2018-06-16T05:51:53.974Z,16.00
2018-06-16T05:54:21.745Z,15.93
2018-06-16T05:56:49.674Z,16.77
2018-06-16T05:59:17.399Z,15.43
2018-06-16T06:01:45.194Z,16.20
2018-06-16T06:04:12.969Z,14.67
2018-06-16T06:06:40.791Z,16.10
2018-06-16T06:09:09.740Z,16.53
2018-06-16T06:11:37.506Z,15.50
2018-06-16T06:14:07.559Z,15.90
2018-06-16T06:16:35.374Z,15.10
2018-06-16T06:19:03.152Z,14.43
2018-06-16T06:21:31.021Z,15.53
2018-06-16T06:23:58.834Z,14.97
2018-06-16T06:26:26.621Z,15.20
2018-06-16T06:28:54.358Z,15.00
2018-06-16T06:31:22.413Z,14.90
2018-06-16T06:33:50.330Z,14.93
2018-06-16T06:36:18.213Z,14.83
2018-06-16T06:38:45.902Z,14.40
2018-06-16T06:41:13.746Z,15.00
2018-06-16T06:43:41.866Z,13.80
2018-06-16T06:46:09.629Z,12.50
2018-06-16T06:48:37.350Z,12.63
2018-06-16T06:51:05.327Z,12.37
2018-06-16T06:53:33.119Z,10.50
2018-06-16T06:56:00.946Z,10.00
2018-06-16T06:58:28.672Z,9.60
2018-06-16T07:00:58.195Z,9.30
2018-06-16T07:03:25.907Z,9.53
2018-06-16T07:05:53.634Z,8.80
2018-06-16T07:08:21.834Z,7.00
2018-06-16T07:10:49.759Z,7.17
2018-06-16T07:13:17.456Z,7.50
2018-06-16T07:15:45.169Z,6.27
2018-06-16T07:18:12.902Z,5.43
2018-06-16T07:20:40.698Z,6.20
2018-06-16T07:23:08.569Z,6.77
2018-06-16T07:25:36.289Z,5.87
2018-06-16T07:28:04.223Z,5.93
2018-06-16T07:30:31.940Z,5.57
2018-06-16T07:32:59.694Z,5.60
2018-06-16T07:35:27.451Z,5.40
2018-06-16T07:37:55.229Z,4.70
2018-06-16T07:40:22.998Z,4.87
2018-06-16T07:42:50.930Z,4.50
2018-06-16T07:45:18.641Z,5.37
2018-06-16T07:47:46.331Z,4.63
2018-06-16T07:50:14.095Z,5.20
2018-06-16T07:52:42.323Z,5.70
2018-06-16T07:55:09.998Z,5.13
2018-06-16T07:57:37.779Z,4.83
2018-06-16T08:00:05.904Z,5.40
2018-06-16T08:02:33.646Z,5.00
2018-06-16T08:05:01.416Z,6.30
2018-06-16T08:07:29.162Z,4.67
2018-06-16T08:09:56.889Z,5.07
2018-06-16T08:12:24.577Z,5.20
2018-06-16T08:14:52.431Z,5.20
2018-06-16T08:17:20.142Z,6.00
2018-06-16T08:19:47.863Z,5.47
2018-06-16T08:22:15.646Z,4.97
2018-06-16T08:24:43.365Z,6.23
2018-06-16T08:27:11.130Z,4.97
2018-06-16T08:29:38.858Z,5.77
2018-06-16T08:32:06.760Z,5.30
2018-06-16T08:34:34.658Z,4.60
2018-06-16T08:37:02.455Z,5.23
2018-06-16T08:39:30.226Z,5.70
2018-06-16T08:41:58.018Z,5.70
2018-06-16T08:44:25.724Z,5.27
2018-06-16T08:46:53.465Z,4.60
2018-06-16T08:49:21.242Z,4.80
2018-06-16T08:51:49.038Z,5.00
2018-06-16T08:54:16.727Z,5.40
2018-06-16T08:56:44.493Z,6.30
2018-06-16T08:59:12.279Z,5.87
2018-06-16T09:01:40.027Z,5.40
2018-06-16T09:04:07.835Z,5.20
2018-06-16T09:06:35.586Z,5.43
2018-06-16T09:09:04.922Z,5.43
2018-06-16T09:11:32.771Z,5.33
2018-06-16T09:14:00.652Z,4.90
2018-06-16T09:16:28.439Z,5.23
2018-06-16T09:18:56.293Z,5.60
2018-06-16T09:21:24.041Z,5.77
2018-06-16T09:23:51.777Z,5.53
2018-06-16T09:26:21.666Z,5.10
2018-06-16T09:28:49.548Z,5.03
2018-06-16T09:31:17.440Z,5.27
2018-06-16T09:33:45.155Z,5.40
2018-06-16T09:36:12.970Z,5.00
2018-06-16T09:38:40.838Z,5.40
2018-06-16T09:41:08.660Z,5.30
2018-06-16T09:43:36.345Z,6.10
2018-06-16T09:46:04.140Z,5.10
2018-06-16T09:48:32.001Z,5.33
2018-06-16T09:50:59.739Z,5.20
2018-06-16T09:53:28.728Z,5.10
2018-06-16T09:55:56.933Z,5.90
2018-06-16T09:58:24.685Z,5.70
2018-06-16T10:00:55.907Z,6.00
2018-06-16T10:03:26.751Z,5.63
2018-06-16T10:05:54.594Z,5.80
2018-06-16T10:08:22.378Z,5.50
2018-06-16T10:10:50.206Z,6.27
2018-06-16T10:13:17.945Z,6.30
2018-06-16T10:15:45.697Z,6.27
2018-06-16T10:18:13.445Z,5.57
2018-06-16T10:20:41.202Z,5.07
2018-06-16T10:23:08.978Z,6.23
2018-06-16T10:25:36.848Z,6.20
2018-06-16T10:28:04.617Z,5.50
2018-06-16T10:30:32.398Z,5.47
2018-06-16T10:33:00.189Z,5.80
2018-06-16T10:35:27.968Z,5.37
2018-06-16T10:37:55.762Z,5.50
2018-06-16T10:40:23.618Z,5.40
2018-06-16T10:42:51.340Z,6.03
2018-06-16T10:45:19.126Z,6.37
2018-06-16T10:47:46.984Z,5.40
2018-06-16T10:50:14.747Z,5.63
2018-06-16T10:52:42.476Z,6.10
2018-06-16T10:55:10.250Z,5.70
2018-06-16T10:57:38.029Z,5.83
2018-06-16T11:13:05.401Z,5.20
2018-06-16T11:15:36.813Z,5.07
2018-06-16T11:18:04.562Z,5.60
2018-06-16T11:20:32.360Z,5.50
2018-06-16T11:23:00.082Z,5.57
2018-06-16T11:25:27.899Z,5.10
2018-06-16T11:27:55.705Z,5.37
2018-06-16T11:30:23.491Z,5.13
2018-06-16T11:32:51.255Z,5.30
2018-06-16T11:35:19.226Z,5.17
2018-06-16T11:37:47.050Z,5.90
2018-06-16T11:40:14.902Z,4.80
2018-06-16T11:42:42.691Z,5.77
2018-06-16T11:45:10.483Z,4.70
2018-06-16T11:47:38.231Z,5.10
2018-06-16T11:50:06.215Z,5.90
2018-06-16T11:52:33.961Z,5.47
2018-06-16T11:55:01.707Z,4.73
2018-06-16T11:57:29.507Z,5.77
2018-06-16T11:59:57.268Z,6.23
2018-06-16T12:02:25.053Z,6.20
2018-06-16T12:04:52.773Z,5.73
2018-06-16T12:07:20.761Z,5.90
2018-06-16T12:09:48.458Z,5.87
2018-06-16T12:12:16.202Z,5.60
2018-06-16T12:14:44.001Z,5.73
2018-06-16T12:17:11.861Z,5.60
2018-06-16T12:19:39.590Z,5.70
2018-06-16T12:22:07.426Z,5.50
2018-06-16T12:24:35.284Z,5.53
2018-06-16T12:27:04.277Z,6.87
2018-06-16T12:29:32.331Z,5.90
2018-06-16T12:32:00.176Z,5.23
2018-06-16T12:34:27.953Z,5.67
2018-06-16T12:36:55.761Z,6.77
2018-06-16T12:39:23.501Z,5.83
2018-06-16T12:41:51.237Z,5.77
2018-06-16T12:44:19.052Z,6.57
2018-06-16T12:46:46.910Z,5.37
2018-06-16T12:49:14.923Z,6.00
2018-06-16T12:51:42.691Z,5.27
2018-06-16T12:54:10.453Z,5.10
2018-06-16T12:56:38.373Z,5.40
2018-06-16T12:59:06.113Z,5.70
2018-06-16T13:01:33.865Z,5.43
2018-06-16T13:04:01.700Z,5.27
2018-06-16T13:06:29.571Z,5.70
2018-06-16T13:08:57.306Z,5.47
2018-06-16T13:11:25.062Z,5.70
2018-06-16T13:13:52.882Z,5.47
2018-06-16T13:16:20.707Z,6.30
2018-06-16T13:18:48.562Z,5.93
2018-06-16T13:21:16.319Z,5.23
2018-06-16T13:23:44.106Z,5.70
2018-06-16T13:26:11.810Z,5.50
2018-06-16T13:28:39.604Z,6.33
2018-06-16T13:31:07.407Z,5.97
2018-06-16T13:33:35.161Z,5.90
2018-06-16T13:36:03.061Z,6.60
2018-06-16T13:38:30.896Z,5.90
2018-06-16T13:40:58.654Z,6.20
2018-06-16T13:43:26.448Z,6.30
2018-06-16T13:45:54.210Z,5.00
2018-06-16T13:48:21.989Z,5.80
2018-06-16T13:50:49.924Z,5.90
2018-06-16T13:53:17.802Z,5.43
2018-06-16T13:55:45.555Z,6.00
2018-06-16T13:58:13.318Z,5.50
2018-06-16T14:00:41.083Z,5.77
2018-06-16T14:03:08.931Z,4.90
2018-06-16T14:05:36.867Z,5.50
2018-06-16T14:08:04.930Z,5.47
2018-06-16T14:10:32.781Z,5.13
2018-06-16T14:13:00.558Z,5.00
2018-06-16T14:15:28.323Z,5.20
2018-06-16T14:17:56.287Z,5.73
2018-06-16T14:20:24.081Z,5.93
2018-06-16T14:22:51.882Z,5.50
2018-06-16T14:25:19.625Z,5.27
2018-06-16T14:27:47.378Z,5.23
2018-06-16T14:30:15.159Z,5.30
2018-06-16T14:32:42.913Z,6.87
2018-06-16T14:35:10.849Z,5.93
2018-06-16T14:37:38.730Z,5.90
2018-06-16T14:40:06.617Z,5.97
2018-06-16T14:42:34.540Z,5.70
2018-06-16T14:45:02.483Z,5.60
2018-06-16T14:47:30.345Z,6.50
2018-06-16T14:49:58.062Z,5.60
2018-06-16T14:52:25.928Z,6.07
2018-06-16T14:54:53.785Z,6.20
2018-06-16T14:57:21.762Z,5.83
2018-06-16T14:59:49.544Z,6.20
2018-06-16T15:02:17.477Z,6.30
2018-06-16T15:04:45.300Z,5.77
2018-06-16T15:07:13.088Z,5.77
2018-06-16T15:09:40.869Z,5.57
2018-06-16T15:12:08.918Z,5.93
2018-06-16T15:14:36.743Z,6.07
2018-06-16T15:17:04.507Z,5.80
2018-06-16T15:19:32.537Z,6.03
2018-06-16T15:22:00.261Z,5.53
2018-06-16T15:24:28.063Z,5.60
2018-06-16T15:26:55.823Z,5.70
2018-06-16T15:29:23.657Z,5.87
2018-06-16T15:31:51.480Z,6.80
2018-06-16T15:34:19.219Z,5.87
2018-06-16T15:36:47.000Z,5.83
2018-06-16T15:39:14.782Z,6.17
2018-06-16T15:41:42.467Z,5.60
2018-06-16T15:44:10.295Z,5.67
2018-06-16T15:46:38.127Z,6.10
2018-06-16T15:49:05.893Z,6.20
2018-06-16T15:51:33.821Z,6.53
2018-06-16T15:54:02.377Z,6.70
2018-06-16T15:56:30.171Z,6.50
2018-06-16T15:58:57.936Z,5.50
2018-06-16T16:01:25.903Z,6.50
2018-06-16T16:03:53.621Z,5.83
2018-06-16T16:06:21.547Z,6.20
2018-06-16T16:08:49.282Z,6.23
2018-06-16T16:11:17.263Z,6.27
2018-06-16T16:13:45.175Z,6.27
2018-06-16T16:16:12.946Z,6.57
2018-06-16T16:18:41.196Z,6.57
2018-06-16T16:21:09.046Z,5.83
2018-06-16T16:23:37.266Z,6.20
2018-06-16T16:26:05.392Z,5.97
2018-06-16T16:28:33.146Z,5.90
2018-06-16T16:31:01.208Z,6.00
2018-06-16T16:33:29.100Z,6.03
2018-06-16T16:35:56.895Z,6.20
2018-06-16T16:38:24.861Z,6.90
2018-06-16T16:40:52.671Z,6.27
2018-06-16T16:43:20.687Z,6.30
2018-06-16T16:45:48.420Z,7.27
2018-06-16T16:48:16.213Z,8.00
2018-06-16T16:50:44.122Z,8.07
2018-06-16T16:53:11.865Z,7.30
2018-06-16T16:55:39.669Z,6.80
2018-06-16T16:58:07.391Z,6.43
2018-06-16T17:00:35.143Z,6.07
2018-06-16T17:03:02.853Z,6.10
2018-06-16T17:05:30.686Z,6.70
2018-06-16T17:07:58.447Z,5.83
2018-06-16T17:10:26.282Z,7.07
2018-06-16T17:12:54.038Z,6.00
2018-06-16T17:15:21.767Z,6.43
2018-06-16T17:17:49.483Z,7.40
2018-06-16T17:20:17.216Z,6.87
2018-06-16T17:22:44.978Z,6.33
2018-06-16T17:25:12.733Z,7.03
2018-06-16T17:27:40.547Z,6.60
2018-06-16T17:30:08.403Z,6.40
2018-06-16T17:32:36.221Z,6.60
2018-06-16T17:35:04.022Z,6.60
2018-06-16T17:37:31.820Z,6.10
2018-06-16T17:39:59.710Z,6.93
2018-06-16T17:42:27.711Z,6.93
2018-06-16T17:44:55.651Z,6.70
2018-06-16T17:47:23.829Z,6.23
2018-06-16T17:49:51.572Z,6.97
2018-06-16T17:52:19.369Z,6.50
2018-06-16T17:54:47.165Z,7.17
2018-06-16T17:57:14.950Z,7.20
2018-06-16T17:59:42.861Z,6.90
2018-06-16T18:02:10.610Z,7.77
2018-06-16T18:04:38.421Z,7.50
2018-06-16T18:07:06.291Z,7.00
2018-06-16T18:09:34.064Z,7.53
2018-06-16T18:12:01.897Z,7.90
2018-06-16T18:14:29.670Z,7.40
2018-06-16T18:16:57.535Z,7.40
2018-06-16T18:19:25.361Z,7.90
2018-06-16T18:21:53.090Z,6.70
2018-06-16T18:24:20.882Z,7.33
2018-06-16T18:26:48.653Z,7.87
2018-06-16T18:29:16.595Z,7.30
2018-06-16T18:31:44.547Z,7.60
2018-06-16T18:34:12.288Z,7.53
2018-06-16T18:36:40.166Z,7.70
2018-06-16T18:39:09.625Z,8.27
2018-06-16T18:41:37.446Z,7.87
2018-06-16T18:44:05.462Z,7.97
2018-06-16T18:46:33.712Z,7.87
2018-06-16T18:49:01.582Z,8.20
2018-06-16T18:51:29.170Z,8.57
2018-06-16T18:53:56.930Z,8.83
2018-06-16T18:56:24.686Z,9.20
2018-06-16T18:58:52.596Z,9.23
2018-06-16T19:01:20.417Z,9.17
2018-06-16T19:03:48.174Z,8.03
2018-06-16T19:06:15.771Z,8.90
2018-06-16T19:08:43.590Z,9.63
2018-06-16T19:11:11.375Z,8.90
2018-06-16T19:13:39.226Z,9.03
2018-06-16T19:16:07.154Z,8.73
2018-06-16T19:18:34.881Z,8.47
2018-06-16T19:21:02.631Z,9.00
2018-06-16T19:23:30.937Z,8.27
2018-06-16T19:25:58.725Z,8.77
2018-06-16T19:28:26.687Z,8.27
2018-06-16T19:30:54.465Z,9.37
2018-06-16T19:33:22.232Z,9.80
2018-06-16T19:35:50.101Z,9.67
2018-06-16T19:38:17.948Z,9.90
2018-06-16T19:40:45.784Z,10.77
2018-06-16T19:43:13.551Z,10.77
2018-06-16T19:45:41.323Z,9.23
2018-06-16T19:48:09.143Z,10.10
2018-06-16T19:50:36.827Z,10.63
2018-06-16T19:53:04.620Z,10.40
2018-06-16T19:55:32.370Z,10.50
2018-06-16T19:58:00.188Z,10.00
2018-06-16T20:00:28.027Z,11.03
2018-06-16T20:02:55.867Z,11.07
2018-06-16T20:05:23.663Z,11.13
2018-06-16T20:07:51.528Z,10.30
2018-06-16T20:10:19.340Z,11.60
2018-06-16T20:12:47.666Z,10.87
2018-06-16T20:15:15.448Z,10.73
2018-06-16T20:17:43.138Z,10.90
2018-06-16T20:20:10.761Z,10.63
2018-06-16T20:22:38.516Z,10.43
2018-06-16T20:25:06.423Z,11.40
2018-06-16T20:27:34.400Z,11.50
2018-06-16T20:30:02.246Z,12.17
2018-06-16T20:32:30.071Z,12.53
2018-06-16T20:34:57.830Z,12.40
2018-06-16T20:37:25.643Z,12.87
2018-06-16T20:39:53.490Z,11.43
2018-06-16T20:42:21.326Z,11.90
2018-06-16T20:44:49.153Z,12.60
2018-06-16T20:47:17.634Z,11.60
2018-06-16T20:49:45.402Z,11.77
2018-06-16T20:52:13.358Z,13.40
2018-06-16T20:54:41.366Z,13.90
2018-06-16T20:57:09.141Z,14.57
2018-06-16T20:59:36.969Z,16.10
2018-06-16T21:02:04.853Z,14.77
2018-06-16T21:04:32.603Z,14.77
2018-06-16T21:07:00.238Z,15.30
2018-06-16T21:09:28.057Z,15.43
2018-06-16T21:11:55.895Z,14.27
2018-06-16T21:14:23.735Z,13.20
2018-06-16T21:16:51.529Z,13.13
2018-06-16T21:19:19.358Z,13.80
2018-06-16T21:21:47.076Z,13.63
2018-06-16T21:24:14.990Z,14.30
2018-06-16T21:26:42.821Z,17.13
2018-06-16T21:29:10.648Z,17.70
2018-06-16T21:31:38.366Z,15.77
2018-06-16T21:34:06.258Z,16.07
2018-06-16T21:36:34.111Z,16.77
2018-06-16T21:39:01.963Z,18.30
2018-06-16T21:41:29.948Z,15.63
2018-06-16T21:43:57.748Z,14.40
2018-06-16T21:46:25.560Z,15.07
2018-06-16T21:48:53.575Z,15.00
2018-06-16T21:51:21.334Z,15.10
2018-06-16T21:53:49.100Z,15.60
2018-06-16T21:56:17.015Z,16.13
2018-06-16T21:58:44.746Z,14.90
2018-06-16T22:01:12.733Z,14.50
2018-06-16T22:03:40.522Z,15.53
2018-06-16T22:06:08.326Z,15.00
2018-06-16T22:08:36.150Z,15.60
2018-06-16T22:11:04.425Z,15.07
2018-06-16T22:13:32.283Z,16.03
2018-06-16T22:16:00.141Z,16.50
2018-06-16T22:18:28.170Z,18.80
2018-06-16T22:20:56.287Z,16.80
2018-06-16T22:23:24.179Z,17.00
2018-06-16T22:25:52.047Z,17.80
2018-06-16T22:28:19.819Z,17.00
2018-06-16T22:30:47.705Z,17.50
2018-06-16T22:33:15.533Z,18.00
2018-06-16T22:35:43.354Z,16.73
2018-06-16T22:38:11.270Z,16.47
2018-06-16T22:40:39.064Z,16.70
2018-06-16T22:43:06.890Z,16.80
2018-06-16T22:45:34.759Z,16.63
2018-06-16T22:48:02.724Z,16.30
2018-06-16T22:50:30.842Z,17.00
2018-06-16T22:52:58.756Z,17.10
2018-06-16T22:55:26.509Z,18.10
2018-06-16T22:57:54.304Z,17.97
2018-06-16T23:00:23.729Z,19.10
2018-06-16T23:02:51.664Z,17.30
2018-06-16T23:05:20.252Z,18.83
2018-06-16T23:07:48.054Z,17.70
2018-06-16T23:10:15.962Z,18.70
2018-06-16T23:12:43.810Z,17.80
2018-06-16T23:15:11.824Z,16.80
2018-06-16T23:17:39.674Z,17.63
2018-06-16T23:20:07.617Z,18.83
2018-06-16T23:22:35.396Z,18.00
2018-06-16T23:25:03.260Z,17.07
2018-06-16T23:27:30.987Z,16.30
2018-06-16T23:29:58.901Z,16.90
2018-06-16T23:32:26.639Z,16.57
2018-06-16T23:34:54.509Z,18.00
2018-06-16T23:37:22.307Z,17.47
2018-06-16T23:39:50.066Z,17.77
2018-06-16T23:42:17.789Z,19.60
2018-06-16T23:44:45.566Z,17.13
2018-06-16T23:47:13.254Z,17.67
2018-06-16T23:49:41.273Z,18.27
2018-06-16T23:52:09.063Z,16.73
2018-06-16T23:54:36.874Z,16.23
2018-06-16T23:57:04.658Z,16.10
2018-06-16T23:59:32.489Z,14.87
